KDPA/DPA METAR and TAF weather

Enter ICAO airport designator
Station Type Date Time Source
KDPA METAR 2020/11/27 02:52 UTC NOAA

KDPA 270252Z 17005KT 10SM OVC023 04/03 A3004 RMK AO2 SLP178 T00440028 50006


Station Type Date Time Source
KDPA Decoded METAR 2020/11/27 02:52 UTC NOAA

CHICAGO/WEST CH DUPAGE, IL, United States (KDPA) 41-54N 88-15W 230M
Nov 26, 2020 - 09:52 PM EST / 2020.11.27 0252 UTC
Wind: from the S (170 degrees) at 6 MPH (5 KT):0
Visibility: 10 mile(s):0
Sky conditions: overcast
Temperature: 39.9 F (4.4 C)
Dew Point: 37.0 F (2.8 C)
Relative Humidity: 89%
Pressure (altimeter): 30.04 in. Hg (1017 hPa)
Pressure tendency: 0.02 inches (0.6 hPa) higher than three hours ago
ob: KDPA 270252Z 17005KT 10SM OVC023 04/03 A3004 RMK AO2 SLP178 T00440028 50006
cycle: 3

Station Type Date Time Source
KDPA TAF 2020/11/26 18:40 UTC NOAA

TAF KDPA 261737Z 2618/2718 23011KT P6SM OVC020
FM270900 28005KT P6SM SCT007 OVC020
TEMPO 2711/2715 BKN007

Example: see airport list